Time;durP1;ratioP1;P1;durP2;ratioP2;P2;SDS_P1;SDS_P2;PMS_P1;PMS_P2;Temp;Humidity;BMP_temperature;BMP_pressure;BME280_temperature;BME280_humidity;BME280_pressure;Samples;Min_cycle;Max_cycle;Signal;HPM_P1;HPM_P2
2022/01/24 00:01:47;;;;;;;12.20;6.20;;;;;;;4.88;47.01;100657.23;1701418;83;21081;-61
2022/01/24 00:04:17;;;;;;;10.90;6.60;;;;;;;4.90;46.88;100656.63;1698319;83;21284;-60
2022/01/24 00:06:46;;;;;;;13.32;7.12;;;;;;;4.91;46.99;100654.86;1696203;84;21560;-72
2022/01/24 00:09:13;;;;;;;12.40;5.80;;;;;;;4.80;47.04;100639.83;1696609;84;21117;-74
2022/01/24 00:14:46;;;;;;;10.68;6.33;;;;;;;4.71;47.75;100646.30;1696787;83;21616;-60
2022/01/24 00:27:06;;;;;;;9.93;5.55;;;;;;;4.39;48.42;100644.30;1696576;83;20970;-77
2022/01/24 00:29:33;;;;;;;11.80;5.58;;;;;;;4.38;48.66;100637.97;1696165;84;20967;-61
2022/01/24 00:32:03;;;;;;;11.28;6.72;;;;;;;4.41;48.52;100650.61;1696485;84;21803;-76
2022/01/24 00:34:32;;;;;;;12.82;6.97;;;;;;;4.51;48.39;100660.94;1696520;84;21018;-62
2022/01/24 00:36:59;;;;;;;14.30;7.55;;;;;;;4.49;48.33;100641.72;1685326;84;21334;-63
2022/01/24 00:39:25;;;;;;;12.30;6.22;;;;;;;4.46;48.35;100643.75;1695874;84;21436;-59
2022/01/24 00:44:44;;;;;;;10.50;5.75;;;;;;;4.52;48.42;100641.94;1696406;83;21145;-59
2022/01/24 00:47:08;;;;;;;14.28;7.25;;;;;;;4.49;48.58;100650.75;1695323;83;20902;-65
2022/01/24 00:49:51;;;;;;;12.85;6.17;;;;;;;4.46;48.84;100635.53;1696585;83;21104;-60
2022/01/24 00:54:57;;;;;;;11.08;6.40;;;;;;;4.55;48.80;100647.65;1696455;83;21549;-61
2022/01/24 00:57:23;;;;;;;12.37;6.75;;;;;;;4.56;48.64;100647.17;1696521;84;21161;-61
2022/01/24 00:59:50;;;;;;;14.00;6.20;;;;;;;4.52;48.82;100653.55;1696164;83;21017;-60
2022/01/24 01:02:17;;;;;;;10.93;6.62;;;;;;;4.54;48.58;100650.34;1696031;83;21108;-59
2022/01/24 01:07:35;;;;;;;12.58;6.83;;;;;;;4.62;48.05;100650.04;1699663;84;21139;-61
2022/01/24 01:18:15;;;;;;;11.90;5.83;;;;;;;4.47;48.67;100660.42;1699915;84;21089;-61
2022/01/24 01:23:31;;;;;;;10.63;7.28;;;;;;;4.58;48.36;100662.88;1699932;84;21197;-60
2022/01/24 01:26:05;;;;;;;13.32;6.20;;;;;;;4.59;48.34;100663.21;1688750;84;20973;-61
2022/01/24 01:28:31;;;;;;;12.13;6.37;;;;;;;4.66;48.74;100660.08;1699200;84;21048;-64
2022/01/24 01:31:03;;;;;;;12.00;6.17;;;;;;;4.55;49.36;100662.33;1688123;84;20993;-62
2022/01/24 01:33:38;;;;;;;10.93;5.92;;;;;;;4.48;49.50;100660.75;1699463;83;21875;-59
2022/01/24 01:36:13;;;;;;;10.13;5.35;;;;;;;4.29;49.74;100664.59;1699044;84;21231;-59
2022/01/24 01:38:47;;;;;;;11.33;6.00;;;;;;;4.33;50.01;100646.12;1697802;84;20942;-60
2022/01/24 01:52:34;;;;;;;10.18;5.50;;;;;;;4.78;48.53;100651.27;1699490;84;21419;-60
2022/01/24 01:57:24;;;;;;;;;;;;;;;4.49;49.21;100647.36;1663719;84;21018;-62
2022/01/24 01:59:51;;;;;;;7.58;3.80;;;;;;;4.51;48.83;100646.29;1699681;84;20166;-59
2022/01/24 02:02:17;;;;;;;7.87;3.90;;;;;;;4.37;49.12;100647.95;1699674;84;21156;-59
2022/01/24 02:04:44;;;;;;;8.50;4.00;;;;;;;4.41;49.07;100650.61;1694125;82;20883;-66
2022/01/24 02:07:13;;;;;;;7.03;3.42;;;;;;;4.31;49.13;100662.67;1691816;84;21183;-60
2022/01/24 02:09:42;;;;;;;6.33;3.05;;;;;;;4.22;49.20;100664.77;1686319;83;21014;-61
2022/01/24 02:12:10;;;;;;;8.23;3.47;;;;;;;4.17;49.29;100661.75;1692101;84;21617;-60
2022/01/24 02:14:44;;;;;;;5.03;2.90;;;;;;;4.32;49.31;100666.91;1691723;84;21806;-76
2022/01/24 02:17:12;;;;;;;6.45;3.20;;;;;;;4.48;48.88;100659.45;1691881;84;21860;-76
2022/01/24 02:24:56;;;;;;;7.37;3.50;;;;;;;4.77;49.03;100653.48;1691772;83;21531;-60
2022/01/24 02:27:22;;;;;;;;;;;;;;;4.67;49.42;100658.66;1694148;84;22568;-60
2022/01/24 02:30:11;;;;;;;6.95;3.62;;;;;;;4.76;49.51;100656.55;1691757;83;20146;-60
2022/01/24 02:32:23;;;;;;;8.45;3.50;;;;;;;4.93;49.54;100656.84;1691839;83;21484;-74
2022/01/24 02:34:50;;;;;;;6.75;3.25;;;;;;;4.45;50.46;100658.43;1691858;84;21081;-74
2022/01/24 02:37:19;;;;;;;8.23;3.77;;;;;;;4.41;50.70;100655.77;1691656;84;20965;-60
2022/01/24 02:53:26;;;;;;;6.40;3.33;;;;;;;4.36;57.90;100678.59;1691265;84;21200;-60
2022/01/24 02:55:55;;;;;;;6.62;3.17;;;;;;;4.24;59.47;100664.95;1692135;84;21069;-61
2022/01/24 02:58:21;;;;;;;7.05;3.87;;;;;;;4.33;59.23;100673.70;1691622;83;20987;-63
2022/01/24 03:00:49;;;;;;;6.70;3.37;;;;;;;4.64;57.77;100664.91;1691907;84;21002;-61
2022/01/24 03:03:15;;;;;;;7.17;3.47;;;;;;;4.64;56.97;100667.48;1691270;84;20938;-60
2022/01/24 03:05:44;;;;;;;7.87;3.45;;;;;;;4.86;56.54;100678.05;1686887;83;21382;-60
2022/01/24 03:08:12;;;;;;;6.83;3.87;;;;;;;5.00;56.42;100678.57;1685151;85;21559;-60
2022/01/24 03:10:45;;;;;;;6.95;3.83;;;;;;;5.15;55.42;100683.66;1686370;85;21462;-61
2022/01/24 03:13:21;;;;;;;7.78;3.20;;;;;;;5.18;55.26;100682.58;1674976;84;20954;-74
2022/01/24 03:15:54;;;;;;;6.33;3.22;;;;;;;5.04;55.30;100687.71;1685726;85;20962;-67
2022/01/24 03:18:21;;;;;;;6.55;3.70;;;;;;;5.25;55.00;100685.77;1680983;84;21180;-60
2022/01/24 03:20:47;;;;;;;7.80;3.50;;;;;;;5.46;54.43;100699.84;1686252;84;20973;-61
2022/01/24 03:23:16;;;;;;;8.35;3.42;;;;;;;5.31;54.32;100698.64;1685867;85;21011;-60
2022/01/24 03:25:46;;;;;;;7.22;3.45;;;;;;;5.37;54.50;100700.66;1686093;85;20986;-60
2022/01/24 03:28:13;;;;;;;6.17;3.30;;;;;;;5.40;54.49;100703.45;1686421;85;20947;-62
2022/01/24 03:30:42;;;;;;;6.75;3.27;;;;;;;5.55;53.55;100699.48;1686476;83;21520;-60
2022/01/24 03:33:09;;;;;;;7.00;3.40;;;;;;;5.36;53.83;100697.73;1685153;83;20962;-76
2022/01/24 03:35:43;;;;;;;8.10;3.92;;;;;;;5.34;53.47;100702.22;1686307;85;21123;-61
2022/01/24 03:38:06;;;;;;;;;;;;;;;5.29;53.77;100699.23;1688300;84;21099;-61
2022/01/24 03:40:33;;;;;;;7.85;3.50;;;;;;;5.17;54.28;100704.22;1686538;84;20103;-62
2022/01/24 03:43:00;;;;;;;7.67;3.33;;;;;;;4.94;55.20;100698.03;1686191;85;22121;-73
2022/01/24 03:45:42;;;;;;;9.00;3.85;;;;;;;5.09;54.98;100703.13;1685608;85;21029;-61
2022/01/24 03:48:25;;;;;;;6.83;3.50;;;;;;;5.09;54.79;100704.42;1686688;85;21054;-64
2022/01/24 03:50:35;;;;;;;7.67;3.60;;;;;;;5.23;54.31;100708.85;1684061;85;21131;-75
2022/01/24 03:53:04;;;;;;;5.53;3.08;;;;;;;5.53;53.10;100699.62;1685775;83;21452;-73
2022/01/24 03:55:33;;;;;;;8.28;3.08;;;;;;;5.47;52.46;100689.83;1686435;85;21035;-62
2022/01/24 03:58:00;;;;;;;6.97;3.58;;;;;;;5.41;52.07;100698.13;1678234;84;21065;-59
2022/01/24 04:00:30;;;;;;;5.72;3.30;;;;;;;5.05;52.26;100694.50;1693045;81;21194;-73
2022/01/24 04:02:59;;;;;;;5.75;3.35;;;;;;;5.06;52.43;100682.73;1777541;78;21388;-61
2022/01/24 04:05:26;;;;;;;8.55;3.60;;;;;;;5.12;51.96;100700.28;1776690;78;21043;-61
2022/01/24 04:07:52;;;;;;;6.47;3.65;;;;;;;5.04;51.78;100706.61;1776885;78;22470;-61
2022/01/24 04:10:22;;;;;;;7.12;3.40;;;;;;;5.34;51.13;100703.51;1777192;78;21022;-64
2022/01/24 04:12:51;;;;;;;8.33;3.50;;;;;;;5.37;50.55;100701.95;1777018;78;21179;-60
2022/01/24 04:16:25;;;;;;;6.87;3.67;;;;;;;5.35;50.08;100714.21;1776359;78;21022;-75
2022/01/24 04:18:32;;;;;;;6.40;3.37;;;;;;;5.45;49.65;100722.75;1755098;78;21125;-60
2022/01/24 04:23:23;;;;;;;7.35;3.02;;;;;;;5.44;48.91;100732.77;1777228;78;21050;-60
2022/01/24 04:25:50;;;;;;;7.90;3.33;;;;;;;5.85;47.61;100725.13;1776396;78;21454;-61
2022/01/24 04:28:16;;;;;;;6.83;3.52;;;;;;;6.09;46.56;100728.54;1776832;78;21047;-60
2022/01/24 04:30:42;;;;;;;4.83;2.70;;;;;;;5.72;46.44;100735.43;1777459;78;20939;-60
2022/01/24 04:33:09;;;;;;;6.67;3.42;;;;;;;5.82;46.19;100734.94;1777000;78;22084;-60
2022/01/24 04:35:37;;;;;;;7.22;3.42;;;;;;;5.79;45.68;100741.20;1777987;78;21018;-60
2022/01/24 04:38:03;;;;;;;5.95;3.02;;;;;;;5.80;45.38;100744.14;1776087;78;20987;-62
2022/01/24 04:40:30;;;;;;;7.97;3.77;;;;;;;5.91;45.06;100739.73;1775914;78;22384;-75
2022/01/24 04:43:19;;;;;;;5.78;3.27;;;;;;;5.80;44.87;100741.56;1776677;78;21528;-61
2022/01/24 04:45:50;;;;;;;8.18;3.30;;;;;;;5.85;44.63;100740.65;1773404;78;21161;-61
2022/01/24 04:51:01;;;;;;;6.28;3.30;;;;;;;5.63;44.38;100737.57;1777054;78;21070;-60
2022/01/24 04:53:51;;;;;;;8.13;3.62;;;;;;;5.75;43.97;100743.73;1774333;78;21138;-62
2022/01/24 04:56:00;;;;;;;6.12;3.10;;;;;;;5.59;43.83;100759.01;1749233;79;21027;-65
2022/01/24 04:58:27;;;;;;;5.75;2.85;;;;;;;5.67;43.76;100762.20;1715344;81;21221;-63
2022/01/24 05:00:54;;;;;;;7.40;3.72;;;;;;;5.25;44.24;100777.53;1724263;80;22935;-67
2022/01/24 05:03:23;;;;;;;7.58;3.80;;;;;;;5.33;44.10;100779.44;1711398;82;21131;-61
2022/01/24 05:05:51;;;;;;;6.78;3.00;;;;;;;5.54;43.95;100774.95;1712163;82;21059;-68
2022/01/24 05:08:18;;;;;;;8.15;3.45;;;;;;;5.57;43.98;100771.28;1711161;82;21300;-74
2022/01/24 05:11:06;;;;;;;5.12;2.75;;;;;;;5.41;44.19;100783.92;1739427;82;22589;-60
2022/01/24 05:23:23;;;;;;;7.25;3.55;;;;;;;5.21;45.18;100786.98;1706492;80;22454;-75
2022/01/24 05:24:01;;;;;;;7.85;4.50;;;;;;;5.06;45.45;100799.00;1739479;80;22666;-60
2022/01/24 05:26:29;;;;;;;11.80;5.00;;;;;;;5.35;45.44;100796.45;1775933;79;21014;-60
2022/01/24 05:28:56;;;;;;;11.00;4.85;;;;;;;5.39;44.91;100797.00;1773730;79;20940;-72
2022/01/24 05:31:22;;;;;;;8.90;4.47;;;;;;;5.36;45.35;100795.49;1772242;79;21028;-60
2022/01/24 05:33:49;;;;;;;8.55;4.55;;;;;;;5.43;45.27;100798.84;1771899;79;20975;-72
2022/01/24 05:36:16;;;;;;;9.70;4.87;;;;;;;5.55;45.05;100805.02;1772867;79;21121;-60
2022/01/24 05:38:45;;;;;;;11.18;5.65;;;;;;;5.59;44.65;100808.14;1775011;79;20975;-66
2022/01/24 05:41:12;;;;;;;10.75;5.83;;;;;;;5.72;44.58;100806.56;1772130;79;21003;-66
2022/01/24 05:43:41;;;;;;;11.93;6.65;;;;;;;5.67;44.58;100811.34;1753039;80;21122;-66
2022/01/24 05:46:09;;;;;;;11.03;6.03;;;;;;;5.79;44.72;100798.11;1733824;80;21022;-60
2022/01/24 05:48:38;;;;;;;11.00;6.05;;;;;;;5.93;44.29;100799.48;1771046;79;22383;-59
2022/01/24 05:51:08;;;;;;;12.33;6.15;;;;;;;6.10;43.79;100814.79;1774380;79;21631;-61
2022/01/24 05:53:34;;;;;;;9.88;6.92;;;;;;;6.15;43.63;100816.95;1775370;79;21054;-62
2022/01/24 05:56:01;;;;;;;10.48;5.35;;;;;;;6.42;43.21;100820.06;1774388;79;20999;-62
2022/01/24 05:58:29;;;;;;;8.73;4.70;;;;;;;6.49;42.74;100819.35;1761614;79;22499;-61
2022/01/24 06:00:58;;;;;;;10.35;6.03;;;;;;;6.38;42.52;100819.53;1771375;79;21157;-62
2022/01/24 06:03:24;;;;;;;11.57;5.67;;;;;;;6.20;42.61;100826.39;1737270;81;20938;-62
2022/01/24 06:05:51;;;;;;;8.95;4.95;;;;;;;6.22;42.82;100821.91;1738624;80;21093;-60
2022/01/24 06:08:17;;;;;;;10.65;5.70;;;;;;;6.23;42.85;100842.95;1773045;79;21516;-64
2022/01/24 06:10:45;;;;;;;8.88;5.12;;;;;;;6.24;42.62;100834.22;1775077;78;21169;-60
2022/01/24 06:13:14;;;;;;;10.35;5.83;;;;;;;6.28;42.52;100831.20;1763798;78;20938;-73
2022/01/24 06:15:42;;;;;;;9.50;5.47;;;;;;;6.31;42.60;100838.69;1762367;79;21025;-59
2022/01/24 06:18:09;;;;;;;8.88;5.20;;;;;;;6.34;42.53;100839.71;1772701;79;20955;-68
2022/01/24 06:20:36;;;;;;;11.03;6.75;;;;;;;6.64;42.04;100837.02;1773180;80;21434;-58
2022/01/24 06:23:03;;;;;;;11.00;5.60;;;;;;;6.47;42.07;100844.56;1772545;80;21481;-69
2022/01/24 06:25:29;;;;;;;8.58;4.87;;;;;;;6.54;42.09;100844.82;1771680;80;21112;-58
2022/01/24 06:27:59;;;;;;;9.83;5.10;;;;;;;6.57;41.99;100849.23;1772576;80;20991;-58
2022/01/24 06:30:25;;;;;;;7.95;4.62;;;;;;;6.58;41.83;100831.44;1772130;80;21490;-60
2022/01/24 06:32:52;;;;;;;8.83;5.42;;;;;;;6.68;41.68;100847.44;1772486;80;20959;-58
2022/01/24 06:35:20;;;;;;;8.58;5.03;;;;;;;6.62;41.77;100847.99;1771971;80;20929;-60
2022/01/24 06:37:47;;;;;;;8.05;4.50;;;;;;;6.57;41.76;100850.53;1772761;80;21568;-58
2022/01/24 06:40:17;;;;;;;9.50;5.08;;;;;;;6.54;41.76;100865.55;1771301;79;21040;-61
2022/01/24 06:42:44;;;;;;;8.95;5.28;;;;;;;6.69;41.67;100851.16;1758709;79;20943;-69
2022/01/24 06:45:10;;;;;;;8.50;4.40;;;;;;;6.74;41.53;100846.39;1767927;78;21074;-58
2022/01/24 06:47:37;;;;;;;9.38;5.08;;;;;;;6.90;41.22;100857.91;1769667;78;21622;-60
2022/01/24 06:50:05;;;;;;;9.63;5.22;;;;;;;6.92;41.10;100841.23;1769482;79;21152;-61
2022/01/24 06:52:35;;;;;;;12.50;5.53;;;;;;;6.95;41.00;100844.84;1773660;78;20988;-62
2022/01/24 06:55:06;;;;;;;9.43;5.65;;;;;;;7.00;40.98;100846.98;1763871;79;21467;-65
2022/01/24 06:57:32;;;;;;;9.28;5.80;;;;;;;7.04;41.09;100844.44;1768213;79;21126;-63
2022/01/24 06:59:59;;;;;;;9.58;5.50;;;;;;;7.07;40.93;100844.16;1771772;78;20892;-60
2022/01/24 07:02:29;;;;;;;9.60;5.55;;;;;;;7.07;40.94;100846.26;1757886;78;21247;-61
2022/01/24 07:05:02;;;;;;;12.58;6.50;;;;;;;7.14;40.81;100846.50;1777395;79;21003;-62
2022/01/24 07:07:33;;;;;;;8.48;4.92;;;;;;;7.09;40.75;100849.21;1760285;79;21000;-59
2022/01/24 07:10:00;;;;;;;14.98;6.85;;;;;;;6.87;40.99;100852.52;1769270;79;20988;-63
2022/01/24 07:12:26;;;;;;;13.45;7.42;;;;;;;7.00;40.91;100849.09;1768073;79;21556;-69
2022/01/24 07:14:54;;;;;;;12.93;6.28;;;;;;;6.88;41.11;100859.33;1772018;79;21090;-61
2022/01/24 07:19:50;;;;;;;13.43;6.60;;;;;;;7.25;40.64;100859.27;1766497;79;20924;-60
2022/01/24 07:22:16;;;;;;;10.45;6.20;;;;;;;6.92;41.26;100871.04;1765768;79;20985;-60
2022/01/24 07:24:44;;;;;;;10.72;5.35;;;;;;;7.11;40.84;100862.83;1765888;79;20987;-69
2022/01/24 07:27:10;;;;;;;9.78;5.58;;;;;;;7.19;40.40;100866.80;1770389;79;21548;-59
2022/01/24 07:29:37;;;;;;;10.53;4.87;;;;;;;6.88;41.09;100873.58;1741823;80;20897;-61
2022/01/24 07:32:04;;;;;;;8.28;4.17;;;;;;;6.90;40.89;100869.57;1733328;80;21142;-61
2022/01/24 07:34:34;;;;;;;8.93;4.78;;;;;;;7.23;40.43;100867.66;1723882;81;21048;-61
2022/01/24 07:37:00;;;;;;;7.72;4.12;;;;;;;7.28;40.24;100862.05;1761986;79;21087;-62
2022/01/24 07:39:28;;;;;;;7.80;4.35;;;;;;;7.27;39.99;100866.88;1766196;79;21140;-63
2022/01/24 07:42:02;;;;;;;8.03;4.15;;;;;;;7.24;40.08;100868.01;1763458;79;21050;-70
2022/01/24 07:44:25;;;;;;;9.10;4.90;;;;;;;7.22;40.02;100874.29;1732743;80;21032;-63
2022/01/24 07:46:51;;;;;;;9.78;4.90;;;;;;;7.26;40.04;100881.63;1768680;79;21034;-63
2022/01/24 07:49:18;;;;;;;8.20;4.45;;;;;;;7.02;40.30;100883.48;1759593;79;22118;-61
2022/01/24 07:51:44;;;;;;;9.15;5.12;;;;;;;7.17;40.47;100871.33;1768943;79;21156;-64
2022/01/24 07:54:11;;;;;;;10.70;5.22;;;;;;;7.26;40.31;100875.62;1779243;79;21092;-62
2022/01/24 07:56:39;;;;;;;10.03;4.60;;;;;;;7.25;40.12;100885.67;1773295;79;21454;-62
2022/01/24 07:59:06;;;;;;;9.25;4.35;;;;;;;7.30;40.30;100890.74;1769023;79;21001;-65
2022/01/24 08:01:34;;;;;;;7.65;3.65;;;;;;;7.30;40.01;100891.23;1772344;79;21225;-62
2022/01/24 08:04:00;;;;;;;5.95;3.60;;;;;;;7.18;39.61;100889.33;1775490;78;21095;-62
2022/01/24 08:06:27;;;;;;;7.22;3.77;;;;;;;7.15;39.14;100899.98;1789635;78;21032;-63
2022/01/24 08:08:57;;;;;;;6.05;3.08;;;;;;;7.39;38.72;100884.37;1780434;78;21027;-61
2022/01/24 08:11:23;;;;;;;5.67;3.17;;;;;;;7.27;38.43;100892.81;1775430;78;20979;-68
2022/01/24 08:13:52;;;;;;;5.33;2.72;;;;;;;7.39;37.91;100891.67;1776111;78;22717;-61
2022/01/24 08:16:18;;;;;;;5.95;2.55;;;;;;;7.30;38.01;100889.94;1775962;78;21754;-60
2022/01/24 08:18:50;;;;;;;6.22;3.20;;;;;;;7.45;37.97;100901.44;1751177;79;21576;-67
2022/01/24 08:21:14;;;;;;;6.25;3.37;;;;;;;7.59;37.58;100888.94;1759493;79;21205;-68
2022/01/24 08:23:43;;;;;;;5.62;2.75;;;;;;;7.63;37.52;100884.59;1760029;79;21630;-61
2022/01/24 08:26:12;;;;;;;7.97;3.47;;;;;;;7.43;37.78;100894.30;1758215;79;21066;-60
2022/01/24 08:28:38;;;;;;;8.25;3.17;;;;;;;7.43;37.54;100893.48;1748418;80;21148;-64
2022/01/24 08:31:07;;;;;;;6.03;3.37;;;;;;;7.24;37.62;100895.23;1751385;80;21627;-66
2022/01/24 08:33:34;;;;;;;6.97;3.50;;;;;;;7.16;37.69;100903.38;1763110;79;21029;-61
2022/01/24 08:36:00;;;;;;;5.85;2.80;;;;;;;6.88;38.18;100898.20;1765930;79;20982;-61
2022/01/24 08:38:29;;;;;;;6.87;3.55;;;;;;;6.81;38.26;100901.84;1750172;80;21470;-64
2022/01/24 08:41:04;;;;;;;6.65;3.72;;;;;;;7.20;37.93;100890.49;1764724;79;21113;-64
2022/01/24 08:43:40;;;;;;;;;;;;;;;7.31;38.07;100890.26;1765768;79;21067;-61
2022/01/24 08:46:05;;;;;;;6.20;3.05;;;;;;;7.49;38.05;100886.40;1752118;79;20192;-61
2022/01/24 08:48:32;;;;;;;7.55;3.60;;;;;;;7.56;38.07;100890.84;1762644;79;20944;-60
2022/01/24 08:50:59;;;;;;;8.10;3.98;;;;;;;7.49;38.10;100882.02;1736752;80;21070;-71
2022/01/24 08:53:31;;;;;;;7.50;3.67;;;;;;;7.37;38.50;100885.80;1766402;79;21114;-61
2022/01/24 08:56:02;;;;;;;8.38;4.35;;;;;;;7.58;38.40;100888.13;1769972;79;21502;-61
2022/01/24 08:58:28;;;;;;;7.45;3.98;;;;;;;7.61;38.47;100890.88;1771868;80;21055;-64
2022/01/24 09:00:55;;;;;;;6.10;2.95;;;;;;;7.49;38.32;100886.40;1770050;79;21043;-70
2022/01/24 09:03:22;;;;;;;5.58;3.08;;;;;;;7.70;37.96;100886.12;1764165;79;21008;-61
2022/01/24 09:05:52;;;;;;;5.90;2.92;;;;;;;7.75;37.99;100889.08;1767672;79;21131;-61
2022/01/24 09:08:22;;;;;;;8.00;3.95;;;;;;;7.78;37.96;100883.59;1743816;80;21233;-70
2022/01/24 09:10:54;;;;;;;5.90;3.10;;;;;;;7.78;38.12;100888.30;1743526;80;21581;-61
2022/01/24 09:13:21;;;;;;;8.90;3.92;;;;;;;7.86;38.38;100878.47;1757755;79;20944;-68
2022/01/24 09:15:48;;;;;;;8.50;3.60;;;;;;;7.83;38.39;100886.55;1747363;80;22363;-61
2022/01/24 09:18:16;;;;;;;6.50;3.50;;;;;;;7.97;38.24;100886.02;1748589;80;21138;-70
2022/01/24 09:20:42;;;;;;;6.60;3.85;;;;;;;7.93;38.24;100882.58;1765671;79;21063;-63
2022/01/24 09:23:09;;;;;;;8.33;4.03;;;;;;;7.62;38.69;100879.56;1765092;79;21039;-70
2022/01/24 09:25:36;;;;;;;7.10;3.87;;;;;;;7.60;38.93;100884.07;1773362;78;21049;-63
2022/01/24 09:28:04;;;;;;;7.67;4.00;;;;;;;7.58;38.97;100880.34;1713599;82;21013;-61
2022/01/24 09:30:31;;;;;;;7.80;3.95;;;;;;;7.60;39.39;100885.38;1765083;79;21148;-65
2022/01/24 09:32:57;;;;;;;9.25;4.55;;;;;;;7.80;39.51;100879.89;1773325;80;20916;-60
2022/01/24 09:35:27;;;;;;;9.65;4.78;;;;;;;7.53;39.90;100875.58;1771991;79;20935;-61
2022/01/24 09:37:52;;;;;;;9.33;4.50;;;;;;;7.62;39.85;100870.00;1750473;80;21014;-59
2022/01/24 09:40:19;;;;;;;9.83;4.87;;;;;;;7.96;39.87;100864.92;1743086;82;21044;-68
2022/01/24 09:42:47;;;;;;;9.08;4.33;;;;;;;7.96;39.94;100867.52;1748101;80;21138;-65
2022/01/24 09:45:16;;;;;;;9.63;4.65;;;;;;;7.78;39.85;100872.72;1741876;82;20942;-63
2022/01/24 09:47:46;;;;;;;7.22;3.85;;;;;;;7.90;40.43;100876.39;1745500;80;21009;-65
2022/01/24 09:50:14;;;;;;;8.45;4.22;;;;;;;8.06;40.69;100870.01;1743871;80;21071;-68
2022/01/24 09:52:41;;;;;;;8.85;4.08;;;;;;;8.04;39.99;100875.85;1770562;79;21000;-61
2022/01/24 09:55:09;;;;;;;9.10;3.83;;;;;;;8.09;39.15;100870.20;1742691;80;21130;-65
2022/01/24 09:57:37;;;;;;;7.80;3.83;;;;;;;8.09;38.62;100880.59;1751846;80;21113;-70
2022/01/24 10:00:06;;;;;;;7.72;3.90;;;;;;;8.51;38.32;100881.53;1745912;80;21129;-61
2022/01/24 10:02:35;;;;;;;8.43;4.63;;;;;;;8.66;37.99;100880.47;1772015;78;21928;-63
2022/01/24 10:05:22;;;;;;;6.92;3.30;;;;;;;8.69;37.13;100870.27;1772026;79;21062;-62
2022/01/24 10:07:55;;;;;;;8.60;4.03;;;;;;;8.69;37.83;100876.27;1728687;79;21147;-72
2022/01/24 10:10:40;;;;;;;9.63;4.00;;;;;;;8.59;39.05;100880.76;1777016;78;20975;-62
2022/01/24 10:16:36;;;;;;;6.80;3.60;;;;;;;7.98;39.39;100864.77;1770642;78;21514;-62
2022/01/24 10:19:17;;;;;;;10.10;4.60;;;;;;;7.62;41.50;100874.37;1776376;78;20979;-71
2022/01/24 10:21:50;;;;;;;7.37;3.67;;;;;;;8.18;40.84;100875.77;1777670;78;21139;-62
2022/01/24 10:24:43;;;;;;;7.97;4.25;;;;;;;8.66;39.69;100869.27;1777975;78;20940;-61
2022/01/24 10:27:29;;;;;;;9.83;4.47;;;;;;;8.48;40.00;100862.83;1757251;81;21066;-61
2022/01/24 10:30:08;;;;;;;8.28;3.92;;;;;;;8.75;39.67;100870.92;1766808;79;21027;-61
2022/01/24 10:33:03;;;;;;;9.13;4.20;;;;;;;8.76;40.30;100869.97;1749655;80;21145;-61
2022/01/24 10:35:44;;;;;;;6.58;3.65;;;;;;;8.73;40.82;100867.68;1743689;80;21130;-70
2022/01/24 10:38:41;;;;;;;7.03;3.83;;;;;;;8.88;39.90;100860.91;1766561;79;21102;-61
2022/01/24 10:41:19;;;;;;;7.65;3.92;;;;;;;9.07;39.42;100870.73;1762965;80;21093;-70
2022/01/24 10:43:40;;;;;;;7.85;3.87;;;;;;;8.68;39.06;100868.16;1771156;79;21087;-61
2022/01/24 10:46:09;;;;;;;7.90;4.22;;;;;;;8.25;39.02;100881.50;1780539;79;21666;-71
2022/01/24 10:48:40;;;;;;;7.78;3.70;;;;;;;8.03;39.64;100871.14;1778322;78;21100;-61
2022/01/24 10:51:24;;;;;;;7.08;3.33;;;;;;;8.23;39.97;100867.06;1775921;79;21231;-69
2022/01/24 10:53:55;;;;;;;9.25;4.42;;;;;;;7.91;40.45;100867.63;1775842;79;21067;-71
2022/01/24 10:56:36;;;;;;;8.53;4.17;;;;;;;8.18;40.04;100868.82;1758445;80;21096;-62
2022/01/24 10:59:22;;;;;;;6.85;3.55;;;;;;;8.07;39.21;100882.05;1766150;80;20995;-62
2022/01/24 11:01:58;;;;;;;6.08;3.12;;;;;;;7.91;38.47;100871.03;1775303;80;21142;-62
2022/01/24 11:04:30;;;;;;;10.08;4.40;;;;;;;8.00;37.88;100872.74;1768795;79;20887;-63
2022/01/24 11:07:01;;;;;;;7.55;4.15;;;;;;;8.30;37.91;100861.59;1774894;80;21062;-61
2022/01/24 11:09:35;;;;;;;7.92;4.12;;;;;;;8.49;37.58;100861.89;1769583;80;21555;-61
2022/01/24 11:12:12;;;;;;;9.75;3.77;;;;;;;8.56;37.14;100855.56;1774818;80;21094;-79
2022/01/24 11:14:41;;;;;;;7.95;4.00;;;;;;;8.40;37.22;100861.01;1773080;80;21160;-62
2022/01/24 11:17:10;;;;;;;7.92;4.12;;;;;;;8.15;37.34;100855.33;1776061;80;21050;-64
2022/01/24 11:19:42;;;;;;;10.70;4.40;;;;;;;8.15;38.28;100861.81;1775360;80;21070;-62
2022/01/24 11:22:18;;;;;;;9.13;4.30;;;;;;;7.93;38.67;100878.20;1773660;79;21033;-63
2022/01/24 11:24:45;;;;;;;7.53;3.70;;;;;;;7.92;38.04;100877.87;1756722;80;21362;-62
2022/01/24 11:27:15;;;;;;;8.03;3.87;;;;;;;7.89;37.63;100872.17;1774509;80;21114;-62
2022/01/24 11:29:43;;;;;;;6.53;3.72;;;;;;;7.81;37.68;100856.05;1781075;79;21067;-75
2022/01/24 11:32:25;;;;;;;5.70;3.27;;;;;;;7.54;37.66;100882.41;1767104;79;21054;-60
2022/01/24 11:34:53;;;;;;;;;;;;;;;7.51;38.00;100872.33;1778167;80;21790;-61
2022/01/24 11:37:44;;;;;;;7.08;3.65;;;;;;;7.07;38.96;100885.15;1776083;80;20085;-74
2022/01/24 11:40:15;;;;;;;5.87;3.15;;;;;;;6.93;39.53;100867.51;1768695;80;21346;-76
2022/01/24 11:42:45;;;;;;;;;;;;;;;6.93;39.60;100871.84;1781288;80;21028;-62
2022/01/24 11:45:14;;;;;;;8.20;4.30;;;;;;;6.86;40.01;100875.52;1778777;80;20131;-62
2022/01/24 11:47:42;;;;;;;9.40;3.90;;;;;;;6.61;39.96;100881.34;1777512;80;20867;-61
2022/01/24 11:50:30;;;;;;;8.15;3.90;;;;;;;6.85;39.44;100879.53;1773106;80;20947;-73
2022/01/24 11:52:57;;;;;;;7.83;3.92;;;;;;;6.88;39.10;100880.55;1777141;80;21855;-62
2022/01/24 11:55:33;;;;;;;9.08;4.35;;;;;;;7.00;39.44;100883.28;1775143;80;20884;-61
2022/01/24 11:58:09;;;;;;;8.70;4.10;;;;;;;7.03;39.53;100880.41;1770808;80;20932;-60
2022/01/24 12:00:44;;;;;;;8.93;3.95;;;;;;;7.17;38.88;100883.81;1772225;80;20942;-62
2022/01/24 12:03:23;;;;;;;6.17;2.92;;;;;;;6.95;39.15;100896.67;1775742;80;21066;-61
2022/01/24 12:05:54;;;;;;;11.65;4.22;;;;;;;7.07;38.65;100892.11;1776202;80;22388;-63
2022/01/24 12:08:34;;;;;;;7.60;3.92;;;;;;;6.97;38.31;100895.22;1769743;79;21021;-59
2022/01/24 12:11:24;;;;;;;9.90;4.95;;;;;;;6.76;38.29;100886.39;1745050;80;20941;-60
2022/01/24 12:14:00;;;;;;;6.33;2.98;;;;;;;6.53;38.28;100900.17;1777029;80;21223;-59
2022/01/24 12:16:37;;;;;;;8.08;4.10;;;;;;;6.51;38.19;100897.71;1754025;79;20891;-60
2022/01/24 12:19:05;;;;;;;9.95;4.42;;;;;;;6.39;38.37;100901.42;1769653;80;22431;-70
2022/01/24 12:21:36;;;;;;;9.05;4.05;;;;;;;6.45;38.00;100907.36;1772187;79;21307;-60
2022/01/24 12:24:11;;;;;;;8.20;3.95;;;;;;;6.25;38.15;100903.16;1712057;82;21109;-62
2022/01/24 12:26:49;;;;;;;9.08;3.55;;;;;;;6.23;38.09;100903.30;1723105;81;21075;-63
2022/01/24 12:29:28;;;;;;;7.65;3.33;;;;;;;6.09;38.04;100909.71;1714762;83;21083;-60
2022/01/24 12:31:58;;;;;;;8.30;4.45;;;;;;;6.07;37.94;100908.23;1715562;81;21150;-63
2022/01/24 12:34:33;;;;;;;8.38;3.80;;;;;;;6.08;38.02;100899.03;1744067;81;21482;-69
2022/01/24 12:37:04;;;;;;;8.88;4.33;;;;;;;6.02;38.23;100908.66;1751925;80;22375;-62
2022/01/24 12:39:51;;;;;;;9.25;4.08;;;;;;;6.02;38.50;100924.64;1752719;80;22303;-61
2022/01/24 12:42:39;;;;;;;8.05;3.45;;;;;;;5.65;38.73;100927.06;1722496;82;20938;-70
2022/01/24 12:47:42;;;;;;;11.88;5.53;;;;;;;5.80;39.00;100927.02;1748084;81;21066;-69
2022/01/24 12:50:10;;;;;;;9.28;3.25;;;;;;;5.85;38.79;100926.93;1743267;80;20897;-60
2022/01/24 12:52:37;;;;;;;7.08;3.72;;;;;;;5.88;38.71;100933.61;1746574;81;20973;-61
2022/01/24 12:55:07;;;;;;;7.22;3.98;;;;;;;5.78;38.84;100922.43;1749804;81;21052;-62
2022/01/24 12:57:39;;;;;;;10.23;4.47;;;;;;;5.78;38.55;100931.48;1749720;81;21828;-65
2022/01/24 13:00:12;;;;;;;9.80;4.15;;;;;;;5.70;38.52;100934.75;1683471;81;21600;-67
2022/01/24 13:02:41;;;;;;;6.83;3.22;;;;;;;5.65;38.59;100931.76;1750151;81;20964;-62
2022/01/24 13:05:16;;;;;;;11.93;3.50;;;;;;;5.68;38.22;100948.76;1749032;81;20936;-70
2022/01/24 13:07:52;;;;;;;5.87;2.85;;;;;;;5.78;37.57;100949.59;1751521;80;20999;-73
2022/01/24 13:10:23;;;;;;;5.67;2.80;;;;;;;5.56;37.44;100941.11;1745856;81;21138;-61
2022/01/24 13:13:07;;;;;;;7.20;3.30;;;;;;;5.51;37.30;100938.13;1734040;82;21066;-61
2022/01/24 13:21:26;;;;;;;6.12;2.87;;;;;;;5.28;37.96;100945.28;1735917;81;21179;-62